createdAt,value
2023-03-27T00:00:16.801Z,7.24
2023-03-27T00:03:05.890Z,7.20
2023-03-27T00:05:34.714Z,7.20
2023-03-27T00:08:06.305Z,7.20
2023-03-27T00:10:35.059Z,7.10
2023-03-27T00:13:05.996Z,7.16
2023-03-27T00:15:36.242Z,7.10
2023-03-27T00:18:04.860Z,7.10
2023-03-27T00:20:37.531Z,7.00
2023-03-27T00:23:06.893Z,7.00
2023-03-27T00:25:35.780Z,6.90
2023-03-27T00:28:04.570Z,6.80
2023-03-27T00:30:34.016Z,6.70
2023-03-27T00:33:02.997Z,6.70
2023-03-27T00:35:31.775Z,6.70
2023-03-27T00:38:01.364Z,6.70
2023-03-27T00:40:32.375Z,6.64
2023-03-27T00:43:01.204Z,6.60
2023-03-27T00:45:34.015Z,6.60
2023-03-27T00:48:08.021Z,6.50
2023-03-27T00:50:42.191Z,6.50
2023-03-27T00:53:16.998Z,6.50
2023-03-27T00:55:49.977Z,6.50
2023-03-27T00:58:26.920Z,6.50
2023-03-27T01:00:57.659Z,6.52
2023-03-27T01:03:32.463Z,6.50
2023-03-27T01:06:03.829Z,6.50
2023-03-27T01:08:35.718Z,6.50
2023-03-27T01:11:14.815Z,6.50
2023-03-27T01:14:16.208Z,6.46
2023-03-27T01:17:02.766Z,6.40
2023-03-27T01:19:56.240Z,6.20
2023-03-27T01:22:53.487Z,6.16
2023-03-27T01:26:08.156Z,6.10
2023-03-27T01:29:15.463Z,6.10
2023-03-27T01:32:29.522Z,6.00
2023-03-27T01:35:50.831Z,6.00
2023-03-27T01:38:59.546Z,6.00
2023-03-27T01:41:41.443Z,5.90
2023-03-27T01:44:47.612Z,5.90
2023-03-27T01:47:25.228Z,5.90
2023-03-27T01:50:27.533Z,5.80
2023-03-27T01:53:07.636Z,5.80
2023-03-27T01:55:41.548Z,5.70
2023-03-27T01:58:16.862Z,5.70
2023-03-27T02:00:53.533Z,5.62
2023-03-27T02:03:40.479Z,5.60
2023-03-27T02:06:19.006Z,5.60
2023-03-27T02:08:59.735Z,5.60
2023-03-27T02:11:40.444Z,5.60
2023-03-27T02:14:25.504Z,5.60
2023-03-27T02:17:02.485Z,5.60
2023-03-27T02:19:37.582Z,5.60
2023-03-27T02:22:06.207Z,5.50
2023-03-27T02:24:44.418Z,5.50
2023-03-27T02:27:40.963Z,5.50
2023-03-27T02:30:30.126Z,5.40
2023-03-27T02:33:34.041Z,5.40
2023-03-27T02:37:12.364Z,5.40
2023-03-27T02:40:50.580Z,5.30
2023-03-27T02:43:57.252Z,5.30
2023-03-27T02:46:56.356Z,5.20
2023-03-27T02:49:37.547Z,5.20
2023-03-27T02:52:23.735Z,5.12
2023-03-27T02:55:21.195Z,5.00
2023-03-27T02:57:59.852Z,5.00
2023-03-27T03:00:43.950Z,4.90
2023-03-27T03:03:30.702Z,4.90
2023-03-27T03:06:07.335Z,4.90
2023-03-27T03:08:39.085Z,4.80
2023-03-27T03:11:14.448Z,4.80
2023-03-27T03:13:43.103Z,4.80
2023-03-27T03:16:12.109Z,4.80
2023-03-27T03:18:41.647Z,4.80
2023-03-27T03:21:10.733Z,4.70
2023-03-27T03:23:39.485Z,4.60
2023-03-27T03:26:09.036Z,4.50
2023-03-27T03:29:00.882Z,4.50
2023-03-27T03:31:44.622Z,4.40
2023-03-27T03:34:18.750Z,4.40
2023-03-27T03:36:49.937Z,4.40
2023-03-27T03:39:24.397Z,4.40
2023-03-27T03:41:53.685Z,4.30
2023-03-27T03:44:22.370Z,4.30
2023-03-27T03:46:50.952Z,4.32
2023-03-27T03:49:22.609Z,4.30
2023-03-27T03:52:03.815Z,4.30
2023-03-27T03:54:33.502Z,4.30
2023-03-27T03:57:03.603Z,4.30
2023-03-27T03:59:32.816Z,4.30
2023-03-27T04:02:37.402Z,4.30
2023-03-27T04:05:10.601Z,4.30
2023-03-27T04:07:41.393Z,4.30
2023-03-27T04:10:48.924Z,4.30
2023-03-27T04:13:40.798Z,4.24
2023-03-27T04:16:18.670Z,4.20
2023-03-27T04:18:54.691Z,4.20
2023-03-27T04:21:27.028Z,4.20
2023-03-27T04:24:02.670Z,4.20
2023-03-27T04:26:51.745Z,4.14
2023-03-27T04:29:36.614Z,4.10
2023-03-27T04:32:06.019Z,4.10
2023-03-27T04:34:57.550Z,4.10
2023-03-27T04:37:48.245Z,4.00
2023-03-27T04:40:30.385Z,4.00
2023-03-27T04:42:59.139Z,4.00
2023-03-27T04:45:28.865Z,4.00
2023-03-27T04:47:57.476Z,4.00
2023-03-27T04:50:26.227Z,4.00
2023-03-27T04:52:59.034Z,3.90
2023-03-27T04:55:38.290Z,3.90
2023-03-27T04:58:08.415Z,3.90
2023-03-27T05:00:38.909Z,3.90
2023-03-27T05:03:32.820Z,3.90
2023-03-27T05:06:10.366Z,3.90
2023-03-27T05:08:39.079Z,3.90
2023-03-27T05:11:08.060Z,3.90
2023-03-27T05:13:43.077Z,3.80
2023-03-27T05:16:12.913Z,3.80
2023-03-27T05:18:45.675Z,3.80
2023-03-27T05:21:15.087Z,3.80
2023-03-27T05:23:44.130Z,3.80
2023-03-27T05:26:13.276Z,3.80
2023-03-27T05:28:52.930Z,3.80
2023-03-27T05:31:22.696Z,3.74
2023-03-27T05:34:05.798Z,3.70
2023-03-27T05:36:35.772Z,3.72
2023-03-27T05:39:05.025Z,3.80
2023-03-27T05:41:37.753Z,3.80
2023-03-27T05:44:07.775Z,3.80
2023-03-27T05:46:40.502Z,3.80
2023-03-27T05:49:15.900Z,3.90
2023-03-27T05:51:47.239Z,4.00
2023-03-27T05:54:21.578Z,4.00
2023-03-27T05:57:01.553Z,4.00
2023-03-27T05:59:30.516Z,4.10
2023-03-27T06:02:19.142Z,4.10
2023-03-27T06:04:54.658Z,4.10
2023-03-27T06:07:30.608Z,4.20
2023-03-27T06:10:03.676Z,4.30
2023-03-27T06:13:14.123Z,4.40
2023-03-27T06:16:02.459Z,4.40
2023-03-27T06:18:40.907Z,4.40
2023-03-27T06:21:09.686Z,4.50
2023-03-27T06:23:39.243Z,4.60
2023-03-27T06:26:12.694Z,4.70
2023-03-27T06:28:41.582Z,4.86
2023-03-27T06:31:10.693Z,4.90
2023-03-27T06:33:42.647Z,4.90
2023-03-27T06:36:22.037Z,4.90
2023-03-27T06:38:52.305Z,4.90
2023-03-27T06:41:21.524Z,4.70
2023-03-27T06:44:19.906Z,4.90
2023-03-27T06:47:07.991Z,5.00
2023-03-27T06:49:57.481Z,5.00
2023-03-27T06:52:26.621Z,5.10
2023-03-27T06:54:59.176Z,5.20
2023-03-27T06:57:27.963Z,5.10
2023-03-27T07:00:01.668Z,5.30
2023-03-27T07:03:08.725Z,5.40
2023-03-27T07:06:00.962Z,5.90
2023-03-27T07:08:34.798Z,6.32
2023-03-27T07:13:37.606Z,7.30
2023-03-27T07:16:09.541Z,8.32
2023-03-27T07:18:38.424Z,9.36
2023-03-27T07:21:08.559Z,10.12
2023-03-27T07:23:37.559Z,10.96
2023-03-27T07:26:09.747Z,11.94
2023-03-27T07:28:58.977Z,12.64
2023-03-27T07:31:48.976Z,13.14
2023-03-27T07:34:19.851Z,13.90
2023-03-27T07:37:07.885Z,14.10
2023-03-27T07:39:37.887Z,13.80
2023-03-27T07:42:07.600Z,14.08
2023-03-27T07:45:01.340Z,14.92
2023-03-27T07:47:31.727Z,15.44
2023-03-27T07:50:01.040Z,15.90
2023-03-27T07:52:30.417Z,15.70
2023-03-27T07:55:01.208Z,15.62
2023-03-27T07:57:59.810Z,15.60
2023-03-27T08:00:34.162Z,15.60
2023-03-27T08:03:14.637Z,15.76
2023-03-27T08:05:58.507Z,15.60
2023-03-27T08:08:29.027Z,15.82
2023-03-27T08:11:02.574Z,15.30
2023-03-27T08:13:35.877Z,14.40
2023-03-27T08:16:10.782Z,15.42
2023-03-27T08:18:39.808Z,16.22
2023-03-27T08:21:10.698Z,15.50
2023-03-27T08:23:41.290Z,15.06
2023-03-27T08:26:10.690Z,15.84
2023-03-27T08:28:47.560Z,15.04
2023-03-27T08:31:18.712Z,14.66
2023-03-27T08:33:47.502Z,15.00
2023-03-27T08:36:23.360Z,14.72
2023-03-27T08:38:55.605Z,14.90
2023-03-27T08:41:45.298Z,14.80
2023-03-27T08:44:22.999Z,15.30
2023-03-27T08:47:18.651Z,14.36
2023-03-27T08:49:59.199Z,14.26
2023-03-27T08:52:42.818Z,13.08
2023-03-27T08:55:19.905Z,12.78
2023-03-27T08:58:02.934Z,12.60
2023-03-27T09:00:40.840Z,11.88
2023-03-27T09:03:39.226Z,11.50
2023-03-27T09:06:29.003Z,10.68
2023-03-27T09:09:09.572Z,10.52
2023-03-27T09:12:09.183Z,11.86
2023-03-27T09:14:48.821Z,13.04
2023-03-27T09:17:28.169Z,13.14
2023-03-27T09:20:18.085Z,12.38
2023-03-27T09:23:21.022Z,11.22
2023-03-27T09:26:36.368Z,11.86
2023-03-27T09:29:19.912Z,11.94
2023-03-27T09:31:57.802Z,12.12
2023-03-27T09:34:32.808Z,11.28
2023-03-27T09:37:03.035Z,10.66
2023-03-27T09:39:34.822Z,10.10
2023-03-27T09:42:29.358Z,9.70
2023-03-27T09:45:04.075Z,9.50
2023-03-27T09:47:41.619Z,10.26
2023-03-27T09:50:33.003Z,10.90
2023-03-27T09:53:19.350Z,11.64
2023-03-27T09:56:06.257Z,12.12
2023-03-27T09:58:44.535Z,12.60
2023-03-27T10:01:21.828Z,12.84
2023-03-27T10:03:59.974Z,13.32
2023-03-27T10:06:44.884Z,12.66
2023-03-27T10:09:32.362Z,11.86
2023-03-27T10:12:08.210Z,11.56
2023-03-27T10:14:47.722Z,11.12
2023-03-27T10:17:38.880Z,11.30
2023-03-27T10:20:20.210Z,11.38
2023-03-27T10:23:06.853Z,11.30
2023-03-27T10:25:40.172Z,10.94
2023-03-27T10:28:28.092Z,10.62
2023-03-27T10:31:33.054Z,10.50
2023-03-27T10:34:50.931Z,10.50
2023-03-27T10:37:41.851Z,10.60
2023-03-27T10:40:55.859Z,10.70
2023-03-27T10:43:44.942Z,10.56
2023-03-27T10:46:21.992Z,10.28
2023-03-27T10:49:22.262Z,10.30
2023-03-27T10:52:03.359Z,10.32
2023-03-27T10:55:03.056Z,10.40
2023-03-27T10:57:34.557Z,10.40
2023-03-27T11:00:22.792Z,10.50
2023-03-27T11:03:20.528Z,10.90
2023-03-27T11:05:54.031Z,11.00
2023-03-27T11:08:37.050Z,11.30
2023-03-27T11:11:41.374Z,11.40
2023-03-27T11:14:39.147Z,11.20
2023-03-27T11:17:14.961Z,11.00
2023-03-27T11:19:59.106Z,10.80
2023-03-27T11:22:56.161Z,10.46
2023-03-27T11:25:53.723Z,10.20
2023-03-27T11:28:47.527Z,10.30
2023-03-27T11:31:26.128Z,10.40
2023-03-27T11:34:06.456Z,10.60
2023-03-27T11:36:49.663Z,10.80
2023-03-27T11:39:43.816Z,10.76
2023-03-27T11:42:37.102Z,10.80
2023-03-27T11:45:14.741Z,11.00
2023-03-27T11:48:16.668Z,11.00
2023-03-27T11:51:05.717Z,10.90
2023-03-27T11:53:46.749Z,10.90
2023-03-27T11:56:32.120Z,10.90
2023-03-27T11:59:36.100Z,10.90
2023-03-27T12:02:24.617Z,10.96
2023-03-27T12:05:52.705Z,10.90
2023-03-27T12:08:54.824Z,11.10
2023-03-27T12:11:26.866Z,11.30
2023-03-27T12:14:40.705Z,11.40
2023-03-27T12:17:43.920Z,11.40
2023-03-27T12:20:41.588Z,11.40
2023-03-27T12:23:48.534Z,11.30
2023-03-27T12:26:57.470Z,11.24
2023-03-27T12:30:02.506Z,11.20
2023-03-27T12:33:17.266Z,11.10
2023-03-27T12:35:54.335Z,11.10
2023-03-27T12:38:24.592Z,11.20
2023-03-27T12:40:53.206Z,11.20
2023-03-27T12:43:22.158Z,11.20
2023-03-27T12:46:20.053Z,11.20
2023-03-27T12:49:16.180Z,11.20
2023-03-27T12:51:54.222Z,10.82
2023-03-27T12:55:14.154Z,10.40
2023-03-27T12:58:00.686Z,10.30
2023-03-27T13:01:00.895Z,10.30
2023-03-27T13:04:20.157Z,10.30
2023-03-27T13:07:01.482Z,10.40
2023-03-27T13:10:02.388Z,10.50
2023-03-27T13:12:58.582Z,10.68
2023-03-27T13:16:02.471Z,10.90
2023-03-27T13:18:59.173Z,10.90
2023-03-27T13:21:52.746Z,10.90
2023-03-27T13:25:02.296Z,10.80
2023-03-27T13:27:44.286Z,10.80
2023-03-27T13:30:44.424Z,10.50
2023-03-27T13:33:31.940Z,10.50
2023-03-27T13:36:23.096Z,10.50
2023-03-27T13:38:52.150Z,10.60
2023-03-27T13:41:44.402Z,10.60
2023-03-27T13:45:04.485Z,10.60
2023-03-27T13:48:01.441Z,10.68
2023-03-27T13:50:49.873Z,10.50
2023-03-27T13:54:21.035Z,10.50
2023-03-27T13:57:17.795Z,10.36
2023-03-27T14:00:15.855Z,10.08
2023-03-27T14:03:31.242Z,10.20
2023-03-27T14:06:12.210Z,10.40
2023-03-27T14:09:12.232Z,10.40
2023-03-27T14:12:26.297Z,10.30
2023-03-27T14:15:24.055Z,10.10
2023-03-27T14:18:33.696Z,9.90
2023-03-27T14:21:06.530Z,9.80
2023-03-27T14:24:07.016Z,9.90
2023-03-27T14:26:46.157Z,9.90
2023-03-27T14:29:17.206Z,9.90
2023-03-27T14:31:51.165Z,9.80
2023-03-27T14:34:35.243Z,9.60
2023-03-27T14:37:30.928Z,9.40
2023-03-27T14:40:42.867Z,9.40
2023-03-27T14:43:13.213Z,9.40
2023-03-27T14:45:41.912Z,9.50
2023-03-27T14:48:26.145Z,9.50
2023-03-27T14:51:02.194Z,9.54
2023-03-27T14:53:36.805Z,9.68
2023-03-27T14:56:38.178Z,9.70
2023-03-27T14:59:14.449Z,9.70
2023-03-27T15:01:56.976Z,9.70
2023-03-27T15:04:28.269Z,9.60
2023-03-27T15:07:20.144Z,9.60
2023-03-27T15:10:28.338Z,9.50
2023-03-27T15:13:00.257Z,9.50
2023-03-27T15:15:42.801Z,9.38
2023-03-27T15:18:53.896Z,9.30
2023-03-27T15:21:46.952Z,9.28
2023-03-27T15:24:49.071Z,9.12
2023-03-27T15:27:30.507Z,9.02
2023-03-27T15:30:30.535Z,9.00
2023-03-27T15:33:04.547Z,9.00
2023-03-27T15:35:34.689Z,9.02
2023-03-27T15:38:07.898Z,9.00
2023-03-27T15:40:42.369Z,9.00
2023-03-27T15:43:14.173Z,8.92
2023-03-27T15:45:57.924Z,8.90
2023-03-27T15:48:38.296Z,8.90
2023-03-27T15:51:19.322Z,8.90
2023-03-27T15:53:59.382Z,9.00
2023-03-27T15:56:43.767Z,9.10
2023-03-27T15:59:16.361Z,9.20
2023-03-27T16:02:12.763Z,9.20
2023-03-27T16:05:02.242Z,9.20
2023-03-27T16:07:43.697Z,9.20
2023-03-27T16:10:13.553Z,9.10
2023-03-27T16:13:04.648Z,8.92
2023-03-27T16:15:42.598Z,8.90
2023-03-27T16:18:24.702Z,8.86
2023-03-27T16:20:53.723Z,8.80
2023-03-27T16:23:22.309Z,8.70
2023-03-27T16:25:51.097Z,8.62
2023-03-27T16:28:19.886Z,8.50
2023-03-27T16:30:49.290Z,8.40
2023-03-27T16:33:22.648Z,8.30
2023-03-27T16:35:51.709Z,8.12
2023-03-27T16:38:21.053Z,8.10
2023-03-27T16:40:49.997Z,8.00
2023-03-27T16:43:18.735Z,7.90
2023-03-27T16:45:47.714Z,7.80
2023-03-27T16:48:16.641Z,7.70
2023-03-27T16:50:45.246Z,7.60
2023-03-27T16:53:13.828Z,7.50
2023-03-27T16:55:44.966Z,7.48
2023-03-27T16:58:13.862Z,7.40
2023-03-27T17:00:42.796Z,7.40
2023-03-27T17:03:11.710Z,7.30
2023-03-27T17:05:40.634Z,7.24
2023-03-27T17:08:09.706Z,7.20
2023-03-27T17:10:38.332Z,7.20
2023-03-27T17:13:07.316Z,7.20
2023-03-27T17:15:38.978Z,7.14
2023-03-27T17:18:07.882Z,7.10
2023-03-27T17:20:36.886Z,7.10
2023-03-27T17:23:05.951Z,7.04
2023-03-27T17:25:34.859Z,7.00
2023-03-27T17:28:04.665Z,6.90
2023-03-27T17:30:39.745Z,6.90
2023-03-27T17:33:14.109Z,6.90
2023-03-27T17:35:42.912Z,6.82
2023-03-27T17:38:11.693Z,6.80
2023-03-27T17:40:41.516Z,6.78
2023-03-27T17:43:11.078Z,6.70
2023-03-27T17:45:42.176Z,6.60
2023-03-27T17:48:11.779Z,6.50
2023-03-27T17:50:40.793Z,6.50
2023-03-27T17:53:09.663Z,6.40
2023-03-27T17:55:38.746Z,6.40
2023-03-27T17:58:10.711Z,6.38
2023-03-27T18:00:41.691Z,6.30
2023-03-27T18:03:10.903Z,6.24
2023-03-27T18:05:42.647Z,6.20
2023-03-27T18:08:16.439Z,6.20
2023-03-27T18:10:54.881Z,6.10
2023-03-27T18:13:23.679Z,6.00
2023-03-27T18:15:58.263Z,6.00
2023-03-27T18:18:27.261Z,5.90
2023-03-27T18:20:56.338Z,5.90
2023-03-27T18:23:25.140Z,5.80
2023-03-27T18:25:54.017Z,5.70
2023-03-27T18:28:24.103Z,5.70
2023-03-27T18:31:02.347Z,5.60
2023-03-27T18:33:33.034Z,5.50
2023-03-27T18:36:03.128Z,5.44
2023-03-27T18:38:32.893Z,5.40
2023-03-27T18:41:01.804Z,5.40
2023-03-27T18:43:30.747Z,5.40
2023-03-27T18:46:04.407Z,5.40
2023-03-27T18:48:35.292Z,5.40
2023-03-27T18:51:06.311Z,5.38
2023-03-27T18:53:35.689Z,5.30
2023-03-27T18:56:04.948Z,5.30
2023-03-27T18:58:34.283Z,5.20
2023-03-27T19:01:08.522Z,5.10
2023-03-27T19:03:39.316Z,5.10
2023-03-27T19:06:11.994Z,5.00
2023-03-27T19:08:42.622Z,5.00
2023-03-27T19:11:11.235Z,4.90
2023-03-27T19:13:58.456Z,4.90
2023-03-27T19:16:45.512Z,4.80
2023-03-27T19:19:17.437Z,4.80
2023-03-27T19:21:55.251Z,4.70
2023-03-27T19:24:33.041Z,4.60
2023-03-27T19:27:01.828Z,4.56
2023-03-27T19:29:31.539Z,4.50
2023-03-27T19:32:00.733Z,4.42
2023-03-27T19:34:42.076Z,4.40
2023-03-27T19:37:11.830Z,4.40
2023-03-27T19:39:40.600Z,4.30
2023-03-27T19:42:09.515Z,4.28
2023-03-27T19:44:38.819Z,4.20
2023-03-27T19:47:07.983Z,4.10
2023-03-27T19:49:37.365Z,4.10
2023-03-27T19:52:21.055Z,4.10
2023-03-27T19:54:49.639Z,4.06
2023-03-27T19:57:18.320Z,4.00
2023-03-27T19:59:47.112Z,4.00
2023-03-27T20:02:15.718Z,4.00
2023-03-27T20:04:44.689Z,4.00
2023-03-27T20:07:13.275Z,4.00
2023-03-27T20:09:41.862Z,3.90
2023-03-27T20:12:11.674Z,3.90
2023-03-27T20:14:40.521Z,3.84
2023-03-27T20:17:18.137Z,3.80
2023-03-27T20:19:56.176Z,3.80
2023-03-27T20:22:25.262Z,3.80
2023-03-27T20:24:53.950Z,3.78
2023-03-27T20:27:22.636Z,3.70
2023-03-27T20:29:51.428Z,3.70
2023-03-27T20:32:20.114Z,3.70
2023-03-27T20:34:49.122Z,3.70
2023-03-27T20:37:18.510Z,3.70
2023-03-27T20:40:11.817Z,3.70
2023-03-27T20:42:47.201Z,3.70
2023-03-27T20:45:19.490Z,3.60
2023-03-27T20:47:49.058Z,3.60
2023-03-27T20:50:18.011Z,3.60
2023-03-27T20:52:46.988Z,3.64
2023-03-27T20:55:30.456Z,3.60
2023-03-27T20:58:06.745Z,3.60
2023-03-27T21:00:35.897Z,3.66
2023-03-27T21:03:05.154Z,3.70
2023-03-27T21:05:38.480Z,3.70
2023-03-27T21:08:07.648Z,3.70
2023-03-27T21:10:38.962Z,3.74
2023-03-27T21:13:08.433Z,3.80
2023-03-27T21:15:37.217Z,3.80
2023-03-27T21:18:06.187Z,3.80
2023-03-27T21:20:35.549Z,3.80
2023-03-27T21:23:05.122Z,3.80
2023-03-27T21:25:35.826Z,3.90
2023-03-27T21:28:07.821Z,3.90
2023-03-27T21:30:47.129Z,3.90
2023-03-27T21:33:17.804Z,4.00
2023-03-27T21:35:48.661Z,4.00
2023-03-27T21:38:18.621Z,4.00
2023-03-27T21:40:47.880Z,4.10
2023-03-27T21:43:16.752Z,4.10
2023-03-27T21:45:47.059Z,4.14
2023-03-27T21:48:15.868Z,4.20
2023-03-27T21:50:45.288Z,4.20
2023-03-27T21:53:14.044Z,4.20
2023-03-27T21:55:43.429Z,4.20
2023-03-27T21:58:12.041Z,4.20
2023-03-27T22:00:41.233Z,4.20
2023-03-27T22:03:09.925Z,4.10
2023-03-27T22:05:39.237Z,4.10
2023-03-27T22:08:08.320Z,4.00
2023-03-27T22:10:37.104Z,4.00
2023-03-27T22:13:05.794Z,4.00
2023-03-27T22:15:34.800Z,4.00
2023-03-27T22:18:03.545Z,3.94
2023-03-27T22:20:32.365Z,3.90
2023-03-27T22:23:01.083Z,3.90
2023-03-27T22:25:29.975Z,3.90
2023-03-27T22:28:01.730Z,3.90
2023-03-27T22:30:31.124Z,3.90
2023-03-27T22:32:59.831Z,3.90
2023-03-27T22:35:28.988Z,3.90
2023-03-27T22:37:58.083Z,3.90
2023-03-27T22:40:27.182Z,3.90
2023-03-27T22:42:56.458Z,3.90
2023-03-27T22:45:25.345Z,3.90
2023-03-27T22:47:54.331Z,3.90
2023-03-27T22:50:23.157Z,3.90
2023-03-27T22:52:52.065Z,3.90
2023-03-27T22:55:21.610Z,3.90
2023-03-27T22:57:50.753Z,3.82
2023-03-27T23:00:21.118Z,3.80
2023-03-27T23:02:50.321Z,3.80
2023-03-27T23:05:19.372Z,3.80
2023-03-27T23:07:48.271Z,3.80
2023-03-27T23:10:17.906Z,3.80
2023-03-27T23:12:47.286Z,3.80
2023-03-27T23:15:16.292Z,3.76
2023-03-27T23:17:59.399Z,3.70
2023-03-27T23:20:29.432Z,3.70
2023-03-27T23:22:58.618Z,3.70
2023-03-27T23:25:27.216Z,3.70
2023-03-27T23:27:56.094Z,3.70
2023-03-27T23:30:24.790Z,3.70
2023-03-27T23:32:53.851Z,3.66
2023-03-27T23:35:22.774Z,3.60
2023-03-27T23:37:51.464Z,3.60
2023-03-27T23:40:20.425Z,3.64
2023-03-27T23:42:49.034Z,3.70
2023-03-27T23:45:17.822Z,3.70
2023-03-27T23:47:46.852Z,3.78
2023-03-27T23:50:15.707Z,3.80
2023-03-27T23:52:44.295Z,3.80
2023-03-27T23:55:12.881Z,3.90
2023-03-27T23:57:41.567Z,3.90
